Strathkinness, United Kingdom
Current Conditions -  °F | °C
As of 1:50 PM on Saturday 20 Dec 2014 (Local Time) from EGQL Reporting Station
Broken Clouds Broken Clouds  
Wind Chill: 38°   Ceiling: 12000
Heat Index: 45°   Visibility: 6mi
Dew Point: 32°   Wind: 13mph
Humidity: 61%   Direction: 300°WNW
Pressure: 30.06"   Gusts: NA
Location:  56.33°N, 2.87°W
Report Text: EGQL 201350Z 30011KT 9999 FEW040 BKN120 07/M00 Q1018 BLU
Loading
Personal Weather Stations






























Interactive Weather Map New forecast layout! Learn more

10-Day Weather Forecast

Advertisements
Track Severe Weather on mobile